Oakdale, New York
Current Conditions -  °F | °C
As of 3:56 PM on Monday 22 Dec 2014 (Local Time) from KISP Reporting Station
Overcast Overcast  
Wind Chill: 41°   Ceiling: 2800
Heat Index: 45°   Visibility: 10mi
Dew Point: 39°   Wind: 8mph
Humidity: 80%   Direction: 90°E
Pressure: 30.24"   Gusts: NA
Location:  40.74°N, 73.13°W
Report Text: KISP 222056Z 09007KT 10SM BKN028 OVC041 07/04 A3024 RMK AO2 SLP240 T00720039 55002
Loading
Personal Weather Stations






























Interactive Weather Map New forecast layout! Learn more

10-Day Weather Forecast

Advertisements
Track Severe Weather on mobile